Time;durP1;ratioP1;P1;durP2;ratioP2;P2;SDS_P1;SDS_P2;PMS_P1;PMS_P2;Temp;Humidity;BMP_temperature;BMP_pressure;BME280_temperature;BME280_humidity;BME280_pressure;Samples;Min_cycle;Max_cycle;Signal;HPM_P1;HPM_P2
2023/05/19 00:00:15;;;;;;;5.07;2.50;;;20.40;48.70;21.10;101685.00;;;;5009354;28;20200;-52
2023/05/19 00:02:42;;;;;;;2.70;2.20;;;20.30;48.60;21.00;101690.00;;;;5009082;28;20215;-54
2023/05/19 00:05:10;;;;;;;3.47;2.30;;;20.30;48.00;21.00;101690.00;;;;5009191;28;20186;-54
2023/05/19 00:07:37;;;;;;;3.60;2.50;;;20.30;48.00;21.00;101695.00;;;;5008728;28;20711;-54
2023/05/19 00:10:04;;;;;;;4.17;2.50;;;20.30;48.20;21.00;101693.00;;;;5007579;28;20190;-53
2023/05/19 00:12:29;;;;;;;3.83;2.57;;;20.30;48.20;21.00;101693.00;;;;5008535;28;20285;-53
2023/05/19 00:14:55;;;;;;;3.13;2.40;;;20.30;48.20;20.90;101685.00;;;;5007597;28;20214;-53
2023/05/19 00:17:22;;;;;;;3.17;2.37;;;20.30;48.30;20.90;101688.00;;;;5009008;28;20643;-54
2023/05/19 00:19:48;;;;;;;3.00;2.43;;;20.20;48.20;20.90;101693.00;;;;5009274;28;20630;-52
2023/05/19 00:22:14;;;;;;;3.17;2.60;;;20.20;48.20;20.90;101686.00;;;;5008945;28;20195;-55
2023/05/19 00:24:40;;;;;;;4.83;2.50;;;20.20;48.20;20.90;101688.00;;;;5008960;28;20621;-53
2023/05/19 00:27:06;;;;;;;2.93;2.17;;;20.20;48.20;20.90;101686.00;;;;5009106;28;20187;-53
2023/05/19 00:29:31;;;;;;;3.00;2.40;;;20.20;48.20;20.90;101690.00;;;;5008729;28;20194;-53
2023/05/19 00:31:57;;;;;;;2.73;2.30;;;20.20;48.30;20.80;101690.00;;;;5007306;28;20290;-54
2023/05/19 00:34:24;;;;;;;2.60;2.30;;;20.20;48.40;20.80;101693.00;;;;5008584;28;20220;-54
2023/05/19 00:36:50;;;;;;;2.50;2.10;;;20.20;48.50;20.80;101686.00;;;;5007135;28;20179;-53
2023/05/19 00:39:16;;;;;;;2.93;2.20;;;20.10;48.40;20.80;101694.00;;;;5008450;28;20183;-54
2023/05/19 00:41:42;;;;;;;2.20;2.00;;;20.10;48.40;20.80;101688.00;;;;5008450;28;20569;-54
2023/05/19 00:44:07;;;;;;;2.33;2.17;;;20.10;48.50;20.70;101693.00;;;;5008833;28;20190;-53
2023/05/19 00:46:33;;;;;;;2.30;2.10;;;20.00;48.50;20.70;101697.00;;;;5008671;28;20225;-54
2023/05/19 00:48:59;;;;;;;2.37;2.17;;;20.10;48.60;20.70;101692.00;;;;5007062;28;20182;-53
2023/05/19 00:51:25;;;;;;;3.50;2.30;;;20.00;48.70;20.70;101686.00;;;;5008395;28;20198;-54
2023/05/19 00:53:51;;;;;;;3.77;2.40;;;20.00;48.50;20.70;101685.00;;;;5008521;28;20245;-55
2023/05/19 00:56:17;;;;;;;2.43;2.23;;;20.00;48.60;20.70;101690.00;;;;5007076;28;20202;-54
2023/05/19 00:58:43;;;;;;;2.73;2.10;;;20.00;48.70;20.60;101682.00;;;;5006865;28;20207;-53
2023/05/19 01:01:10;;;;;;;3.40;2.30;;;20.00;48.70;20.60;101691.00;;;;5008188;28;20607;-54
2023/05/19 01:03:36;;;;;;;3.07;2.07;;;20.00;48.70;20.60;101676.00;;;;5006802;28;20197;-54
2023/05/19 01:06:05;;;;;;;2.50;2.10;;;20.00;48.70;20.60;101684.00;;;;5006972;28;20624;-54
2023/05/19 01:08:32;;;;;;;2.40;2.20;;;19.90;48.60;20.60;101682.00;;;;5008155;28;20180;-54
2023/05/19 01:10:58;;;;;;;3.70;2.20;;;19.90;48.80;20.60;101674.00;;;;5008251;28;20201;-55
2023/05/19 01:13:25;;;;;;;2.63;2.20;;;19.90;48.70;20.50;101679.00;;;;5008002;28;20208;-54
2023/05/19 01:15:59;;;;;;;2.90;2.27;;;19.90;48.70;20.50;101675.00;;;;5006866;28;20178;-54
2023/05/19 01:18:40;;;;;;;4.50;2.30;;;19.90;48.70;20.50;101683.00;;;;5006990;28;20187;-53
2023/05/19 01:21:22;;;;;;;2.50;2.20;;;19.90;48.70;20.50;101676.00;;;;5006763;28;20694;-52
2023/05/19 01:24:13;;;;;;;2.20;2.00;;;19.90;48.80;20.50;101670.00;;;;5008452;28;20178;-53
2023/05/19 01:27:05;;;;;;;3.83;2.17;;;19.80;48.70;20.40;101679.00;;;;5016782;28;20296;-54
2023/05/19 01:30:38;;;;;;;2.30;2.10;;;19.80;48.70;20.40;101675.00;;;;5015514;28;20180;-54
2023/05/19 01:33:12;;;;;;;2.63;2.30;;;19.80;48.70;20.30;101661.00;;;;5007034;28;20211;-53
2023/05/19 01:35:38;;;;;;;2.67;2.17;;;19.80;48.80;20.30;101659.00;;;;4999894;28;20672;-53
2023/05/19 01:38:07;;;;;;;2.33;2.10;;;19.70;48.70;20.30;101660.00;;;;5004657;28;20187;-53
2023/05/19 01:40:32;;;;;;;2.70;2.10;;;19.70;48.80;20.30;101669.00;;;;5015621;28;20206;-53
2023/05/19 01:42:59;;;;;;;2.33;2.03;;;19.70;48.70;20.30;101665.00;;;;5032004;28;20895;-54
2023/05/19 01:45:28;;;;;;;2.33;2.13;;;19.70;48.80;20.30;101662.00;;;;5013044;28;20187;-53
2023/05/19 01:47:57;;;;;;;2.20;2.00;;;19.60;49.00;20.30;101670.00;;;;5010495;28;20596;-54
2023/05/19 01:50:23;;;;;;;3.30;2.23;;;19.70;49.10;20.30;101676.00;;;;5011583;28;20579;-54
2023/05/19 01:52:49;;;;;;;2.50;2.00;;;19.60;49.20;20.30;101672.00;;;;5009976;28;20202;-53
2023/05/19 01:55:14;;;;;;;2.20;2.00;;;19.60;49.00;20.30;101662.00;;;;5011426;28;20226;-53
2023/05/19 01:58:01;;;;;;;2.50;2.10;;;19.60;49.00;20.20;101665.00;;;;5011322;28;20528;-52
2023/05/19 02:01:13;;;;;;;2.37;2.10;;;19.60;49.00;20.20;101678.00;;;;5010295;28;20184;-52
2023/05/19 02:04:14;;;;;;;3.60;2.10;;;19.60;49.10;20.20;101671.00;;;;5011102;28;20564;-53
2023/05/19 02:06:45;;;;;;;2.53;2.30;;;19.60;49.30;20.10;101669.00;;;;5010648;28;20180;-53
2023/05/19 02:09:31;;;;;;;2.67;2.10;;;19.60;49.30;20.10;101681.00;;;;5009911;28;20187;-53
2023/05/19 02:12:28;;;;;;;2.33;2.00;;;19.60;50.00;20.10;101685.00;;;;5009742;28;20200;-52
2023/05/19 02:15:06;;;;;;;2.77;2.10;;;19.50;49.20;20.10;101681.00;;;;5009579;28;20249;-53
2023/05/19 02:17:40;;;;;;;2.30;2.00;;;19.50;49.30;20.10;101678.00;;;;5010844;28;20313;-52
2023/05/19 02:20:08;;;;;;;2.23;2.03;;;19.50;49.40;20.10;101675.00;;;;5011250;28;20618;-54
2023/05/19 02:22:34;;;;;;;2.40;1.90;;;19.50;49.30;20.00;101684.00;;;;5009573;28;20732;-52
2023/05/19 02:24:59;;;;;;;3.37;2.10;;;19.40;49.30;20.00;101681.00;;;;5009759;28;20566;-53
2023/05/19 02:27:25;;;;;;;2.20;2.00;;;19.40;49.40;20.00;101683.00;;;;5009282;28;20184;-52
2023/05/19 02:29:51;;;;;;;2.20;2.00;;;19.40;49.50;20.00;101681.00;;;;5010718;28;20183;-53
2023/05/19 02:32:17;;;;;;;2.83;2.30;;;19.40;49.50;20.00;101678.00;;;;5010363;28;20219;-52
2023/05/19 02:34:44;;;;;;;1.97;1.80;;;19.40;49.70;20.00;101666.00;;;;5010540;28;20674;-53
2023/05/19 02:37:13;;;;;;;2.43;2.20;;;19.30;50.20;20.00;101675.00;;;;5010590;28;20253;-53
2023/05/19 02:39:39;;;;;;;2.00;1.90;;;19.30;49.60;19.90;101674.00;;;;5010599;28;20176;-54
2023/05/19 02:42:05;;;;;;;2.20;2.00;;;19.30;49.60;19.90;101666.00;;;;5010214;28;20666;-53
2023/05/19 02:44:31;;;;;;;2.40;2.20;;;19.30;49.60;19.90;101663.00;;;;5010221;28;20179;-52
2023/05/19 02:46:57;;;;;;;2.30;1.97;;;19.20;49.50;19.90;101668.00;;;;5009914;28;20187;-54
2023/05/19 02:49:22;;;;;;;2.70;2.10;;;19.20;49.60;19.90;101664.00;;;;5010229;28;20211;-53
2023/05/19 02:51:48;;;;;;;3.73;2.17;;;19.20;49.60;19.90;101669.00;;;;5010129;28;20211;-54
2023/05/19 02:54:14;;;;;;;2.30;2.00;;;19.20;49.50;19.80;101657.00;;;;5010337;28;20208;-53
2023/05/19 02:56:39;;;;;;;2.33;2.13;;;19.20;49.60;19.80;101659.00;;;;5011495;28;20184;-54
2023/05/19 02:59:05;;;;;;;2.37;2.17;;;19.20;49.60;19.80;101651.00;;;;5013139;28;20188;-54
2023/05/19 03:01:31;;;;;;;2.20;2.00;;;19.10;49.50;19.80;101654.00;;;;5012919;28;20206;-52
2023/05/19 03:03:57;;;;;;;2.33;1.90;;;19.10;49.40;19.70;101646.00;;;;5010325;28;20179;-56
2023/05/19 03:06:23;;;;;;;3.07;2.00;;;19.10;49.50;19.70;101653.00;;;;5010077;28;20199;-52
2023/05/19 03:08:49;;;;;;;2.03;1.83;;;19.10;49.50;19.70;101652.00;;;;5010019;28;20180;-52
2023/05/19 03:11:15;;;;;;;2.27;1.90;;;19.10;49.50;19.70;101647.00;;;;5010152;28;20196;-52
2023/05/19 03:13:41;;;;;;;2.03;1.90;;;19.00;50.00;19.60;101650.00;;;;5009830;28;20281;-53
2023/05/19 03:16:07;;;;;;;2.30;2.10;;;19.10;49.50;19.60;101649.00;;;;5009725;28;20976;-52
2023/05/19 03:18:33;;;;;;;2.00;1.80;;;19.00;49.40;19.60;101648.00;;;;5010106;28;20294;-53
2023/05/19 03:20:59;;;;;;;2.37;2.00;;;19.00;49.40;19.60;101649.00;;;;5010511;28;20227;-53
2023/05/19 03:23:26;;;;;;;2.73;2.10;;;19.00;49.40;19.60;101647.00;;;;5004399;28;20188;-54
2023/05/19 03:25:55;;;;;;;2.77;2.00;;;19.00;49.40;19.60;101652.00;;;;5006499;28;20275;-52
2023/05/19 03:28:22;;;;;;;4.97;2.37;;;19.00;49.40;19.50;101650.00;;;;5023780;28;20182;-54
2023/05/19 03:30:49;;;;;;;3.27;2.10;;;19.00;49.80;19.60;101653.00;;;;5018996;28;20261;-52
2023/05/19 03:33:15;;;;;;;3.00;1.93;;;19.00;49.40;19.50;101642.00;;;;5010356;28;20342;-53
2023/05/19 03:35:43;;;;;;;4.50;2.17;;;18.90;49.30;19.50;101665.00;;;;5010544;28;20753;-53
2023/05/19 03:38:08;;;;;;;4.17;2.13;;;18.90;49.10;19.50;101660.00;;;;5010322;28;20167;-53
2023/05/19 03:40:34;;;;;;;3.17;1.97;;;18.90;48.80;19.40;101657.00;;;;5009275;28;20175;-53
2023/05/19 03:43:00;;;;;;;2.27;2.03;;;18.80;48.40;19.40;101651.00;;;;5022875;28;20199;-53
2023/05/19 03:45:26;;;;;;;4.63;2.10;;;18.90;48.00;19.40;101665.00;;;;5010556;28;20503;-51
2023/05/19 03:47:52;;;;;;;3.80;2.00;;;18.90;47.90;19.30;101657.00;;;;5010438;28;20183;-53
2023/05/19 03:50:17;;;;;;;4.23;2.20;;;18.80;47.80;19.30;101652.00;;;;5010543;28;20286;-52
2023/05/19 03:52:45;;;;;;;3.20;2.10;;;18.80;47.60;19.20;101641.00;;;;5010436;28;20567;-54
2023/05/19 03:55:11;;;;;;;4.57;2.47;;;18.80;47.60;19.20;101647.00;;;;5009401;28;20257;-53
2023/05/19 03:57:37;;;;;;;2.87;2.10;;;18.70;47.50;19.20;101648.00;;;;5009665;28;20218;-53
2023/05/19 04:00:04;;;;;;;4.23;2.40;;;18.80;47.20;19.10;101650.00;;;;5009787;28;20247;-52
2023/05/19 04:02:30;;;;;;;3.73;2.40;;;18.70;46.90;19.10;101648.00;;;;5010127;28;20281;-53
2023/05/19 04:04:56;;;;;;;2.83;2.10;;;18.70;46.70;19.10;101649.00;;;;5009382;28;20220;-53
2023/05/19 04:07:22;;;;;;;2.57;1.90;;;18.70;47.00;19.10;101653.00;;;;5009181;28;20270;-53
2023/05/19 04:09:49;;;;;;;3.03;2.30;;;18.60;47.00;19.10;101649.00;;;;5009383;28;20175;-52
2023/05/19 04:12:15;;;;;;;2.50;1.97;;;18.60;47.20;19.00;101644.00;;;;5009229;28;20341;-53
2023/05/19 04:14:41;;;;;;;4.63;2.47;;;18.60;47.30;19.00;101642.00;;;;5008405;28;20273;-53
2023/05/19 04:17:07;;;;;;;4.70;2.20;;;18.50;47.30;19.00;101643.00;;;;5009470;28;20198;-54
2023/05/19 04:19:32;;;;;;;3.80;2.20;;;18.50;47.20;19.00;101645.00;;;;5008781;28;20713;-53
2023/05/19 04:21:58;;;;;;;3.93;2.30;;;18.50;47.30;19.00;101647.00;;;;4990987;28;20198;-54
2023/05/19 04:24:24;;;;;;;4.77;2.27;;;18.40;47.20;19.00;101640.00;;;;4987741;28;20177;-53
2023/05/19 04:26:50;;;;;;;3.67;2.23;;;18.50;47.10;18.90;101650.00;;;;4992009;28;20684;-50
2023/05/19 04:29:19;;;;;;;2.63;2.00;;;18.50;47.10;18.90;101649.00;;;;5007510;28;20207;-51
2023/05/19 04:31:45;;;;;;;3.40;2.30;;;18.40;47.30;18.90;101653.00;;;;5008387;28;20200;-52
2023/05/19 04:34:11;;;;;;;3.37;2.33;;;18.40;47.40;18.80;101651.00;;;;5009402;28;20200;-51
2023/05/19 04:36:37;;;;;;;4.03;2.30;;;18.40;47.30;18.80;101652.00;;;;5008913;28;20666;-52
2023/05/19 04:39:06;;;;;;;3.83;2.27;;;18.30;47.20;18.80;101649.00;;;;5007690;28;20175;-51
2023/05/19 04:41:38;;;;;;;6.90;2.57;;;18.30;47.30;18.80;101649.00;;;;5009837;28;20206;-51
2023/05/19 04:44:06;;;;;;;5.00;2.43;;;18.30;47.20;18.80;101647.00;;;;5008504;28;20181;-51
2023/05/19 04:46:32;;;;;;;4.17;2.13;;;18.30;47.20;18.80;101644.00;;;;5009136;28;20244;-50
2023/05/19 04:49:00;;;;;;;7.87;2.70;;;18.30;47.40;18.80;101630.00;;;;5008759;28;20639;-51
2023/05/19 04:51:30;;;;;;;8.83;2.90;;;18.20;47.50;18.70;101656.00;;;;5008262;28;20251;-51
2023/05/19 04:53:56;;;;;;;7.93;3.40;;;18.20;47.50;18.70;101659.00;;;;5008716;28;20213;-51
2023/05/19 04:56:22;;;;;;;10.63;3.33;;;18.30;47.40;18.70;101658.00;;;;5008937;28;20626;-52
2023/05/19 04:58:48;;;;;;;8.77;2.80;;;18.30;47.20;18.70;101657.00;;;;5007798;28;20176;-52
2023/05/19 05:01:14;;;;;;;13.37;3.57;;;18.30;46.90;18.60;101668.00;;;;5009339;28;20596;-51
2023/05/19 05:03:43;;;;;;;6.27;2.80;;;18.30;46.90;18.60;101659.00;;;;5009178;28;20620;-52
2023/05/19 05:06:10;;;;;;;7.47;2.73;;;18.30;46.70;18.60;101662.00;;;;5008601;28;20225;-53
2023/05/19 05:08:38;;;;;;;5.20;2.80;;;18.30;46.60;18.60;101653.00;;;;5007756;28;20202;-52
2023/05/19 05:11:05;;;;;;;5.07;2.60;;;18.20;46.60;18.50;101658.00;;;;5011161;28;20195;-51
2023/05/19 05:13:31;;;;;;;7.67;2.70;;;18.20;46.60;18.50;101661.00;;;;5011754;28;20215;-51
2023/05/19 05:15:57;;;;;;;4.23;2.50;;;18.20;46.90;18.50;101652.00;;;;5012607;28;20266;-52
2023/05/19 05:18:23;;;;;;;6.90;2.70;;;18.10;46.80;18.50;101653.00;;;;5011129;28;20264;-53
2023/05/19 05:20:49;;;;;;;4.93;2.70;;;18.10;46.80;18.50;101662.00;;;;5012938;28;20172;-51
2023/05/19 05:23:15;;;;;;;5.70;2.50;;;18.10;46.90;18.40;101660.00;;;;5013057;28;20175;-52
2023/05/19 05:25:42;;;;;;;5.60;2.70;;;18.10;46.70;18.40;101658.00;;;;5015599;28;20197;-52
2023/05/19 05:28:07;;;;;;;7.00;2.80;;;18.10;46.70;18.40;101659.00;;;;5015502;28;20180;-52
2023/05/19 05:30:33;;;;;;;4.27;2.40;;;18.00;46.80;18.40;101655.00;;;;5022440;28;20598;-52
2023/05/19 05:33:00;;;;;;;4.50;2.30;;;18.00;47.10;18.40;101655.00;;;;5014509;28;20732;-52
2023/05/19 05:35:26;;;;;;;4.50;2.57;;;18.00;47.30;18.40;101666.00;;;;5013306;28;20690;-52
2023/05/19 05:37:52;;;;;;;4.60;2.40;;;18.00;47.40;18.40;101663.00;;;;5011334;28;20183;-53
2023/05/19 05:40:18;;;;;;;4.53;2.50;;;18.00;47.20;18.40;101664.00;;;;5014496;28;20170;-52
2023/05/19 05:42:43;;;;;;;3.37;2.43;;;17.90;47.30;18.40;101648.00;;;;5018071;28;20298;-52
2023/05/19 05:45:09;;;;;;;4.13;2.43;;;17.90;47.30;18.40;101659.00;;;;5027430;28;20230;-51
2023/05/19 05:47:38;;;;;;;3.63;2.43;;;17.90;48.00;18.40;101659.00;;;;5013572;28;20184;-51
2023/05/19 05:50:05;;;;;;;3.13;2.27;;;17.90;47.30;18.10;101651.00;;;;5012971;28;20264;-52
2023/05/19 05:52:31;;;;;;;2.93;2.20;;;17.90;47.10;18.30;101643.00;;;;5012005;28;20230;-52
2023/05/19 05:54:57;;;;;;;3.13;2.20;;;17.80;47.30;18.30;101585.00;;;;5010450;28;20231;-53
2023/05/19 05:57:23;;;;;;;3.00;2.40;;;17.80;47.40;18.30;101659.00;;;;5011687;28;20175;-51
2023/05/19 05:59:49;;;;;;;3.60;2.20;;;17.80;47.60;18.30;101650.00;;;;5012479;28;20242;-50
2023/05/19 06:02:16;;;;;;;4.57;2.50;;;17.80;47.20;18.30;101652.00;;;;5012183;28;20823;-50
2023/05/19 06:04:42;;;;;;;3.40;2.43;;;17.80;47.40;18.30;101643.00;;;;5011721;28;20211;-56
2023/05/19 06:07:08;;;;;;;3.90;2.40;;;17.80;47.40;18.30;101645.00;;;;5011515;28;20650;-52
2023/05/19 06:09:34;;;;;;;3.30;2.20;;;17.70;47.40;18.30;101653.00;;;;5011556;28;20266;-51
2023/05/19 06:12:00;;;;;;;3.73;2.30;;;17.70;47.40;18.30;101644.00;;;;5009648;28;20743;-52
2023/05/19 06:14:26;;;;;;;3.60;2.30;;;17.80;47.40;18.20;101653.00;;;;5010685;28;20206;-50
2023/05/19 06:16:51;;;;;;;3.37;2.30;;;17.70;47.20;18.30;101647.00;;;;5010544;28;20281;-53
2023/05/19 06:19:18;;;;;;;4.40;2.40;;;17.80;47.60;18.20;101648.00;;;;5012121;28;20177;-53
2023/05/19 06:21:44;;;;;;;2.57;2.20;;;17.70;47.40;18.20;101642.00;;;;5011692;28;20280;-53
2023/05/19 06:24:10;;;;;;;3.40;2.13;;;17.70;47.50;18.30;101635.00;;;;5011750;28;20278;-52
2023/05/19 06:26:36;;;;;;;3.57;2.30;;;17.80;47.70;18.30;101641.00;;;;5011829;28;20273;-53
2023/05/19 06:29:02;;;;;;;5.30;2.50;;;17.80;47.70;18.30;101644.00;;;;5011338;28;20186;-49
2023/05/19 06:31:28;;;;;;;3.50;2.40;;;17.90;47.90;18.30;101640.00;;;;5011600;28;20205;-48
2023/05/19 06:33:53;;;;;;;3.63;2.30;;;17.90;47.80;18.30;101640.00;;;;5011136;28;20213;-47
2023/05/19 06:36:19;;;;;;;3.43;2.40;;;17.80;47.80;18.30;101643.00;;;;5009921;28;20181;-48
2023/05/19 06:38:45;;;;;;;4.00;2.37;;;17.80;47.80;18.30;101637.00;;;;5005901;28;20179;-48
2023/05/19 06:41:11;;;;;;;2.97;2.30;;;17.80;47.80;18.30;101635.00;;;;5009377;28;20827;-49
2023/05/19 06:43:37;;;;;;;3.90;2.30;;;17.90;47.90;18.30;101641.00;;;;5011331;28;20587;-49
2023/05/19 06:46:03;;;;;;;5.10;2.30;;;17.90;47.80;18.30;101637.00;;;;5011127;28;20183;-47
2023/05/19 06:48:29;;;;;;;4.17;2.30;;;17.90;47.80;18.30;101637.00;;;;5009962;28;20283;-48
2023/05/19 06:50:55;;;;;;;4.37;2.37;;;17.80;47.70;18.30;101647.00;;;;5010932;28;20192;-51
2023/05/19 06:53:21;;;;;;;3.73;2.40;;;17.80;47.50;18.30;101643.00;;;;5010883;28;20186;-49
2023/05/19 06:55:49;;;;;;;3.00;2.30;;;17.80;47.80;18.30;101644.00;;;;5011222;28;20224;-47
2023/05/19 06:58:15;;;;;;;4.00;2.20;;;17.80;47.60;18.30;101640.00;;;;5011249;28;20179;-47
2023/05/19 07:00:41;;;;;;;2.80;2.17;;;17.80;47.80;18.30;101641.00;;;;5011226;28;20185;-46
2023/05/19 07:03:06;;;;;;;2.67;2.13;;;17.80;47.80;18.40;101636.00;;;;5014452;28;20183;-48
2023/05/19 07:05:32;;;;;;;3.33;2.40;;;17.90;47.90;18.40;101649.00;;;;5014918;28;20182;-47
2023/05/19 07:07:58;;;;;;;4.57;2.40;;;17.90;47.90;18.40;101653.00;;;;5013261;28;20687;-48
2023/05/19 07:10:24;;;;;;;2.20;1.97;;;17.90;48.00;18.40;101640.00;;;;5011083;28;20207;-48
2023/05/19 07:12:49;;;;;;;3.13;2.30;;;17.90;47.90;18.40;101638.00;;;;5011116;28;20192;-49
2023/05/19 07:15:15;;;;;;;3.60;2.27;;;17.80;47.90;18.40;101637.00;;;;5011035;28;20282;-47
2023/05/19 07:17:41;;;;;;;2.67;2.23;;;17.90;48.00;18.40;101641.00;;;;5011009;28;20206;-47
2023/05/19 07:20:08;;;;;;;3.27;2.00;;;17.80;47.90;18.40;101636.00;;;;5011692;28;20322;-48
2023/05/19 07:22:35;;;;;;;4.90;2.50;;;17.80;47.90;18.40;101636.00;;;;5013513;28;20251;-50
2023/05/19 07:25:01;;;;;;;5.20;2.40;;;17.90;48.10;18.40;101645.00;;;;5012424;28;20707;-47
2023/05/19 07:27:27;;;;;;;3.67;2.10;;;17.80;48.20;18.40;101633.00;;;;5012828;28;20188;-47
2023/05/19 07:29:53;;;;;;;5.43;2.40;;;17.80;48.30;18.40;101634.00;;;;5017550;28;20185;-46
2023/05/19 07:32:19;;;;;;;5.97;2.50;;;17.80;48.10;18.40;101653.00;;;;5022525;28;20203;-48
2023/05/19 07:34:44;;;;;;;5.00;2.40;;;17.90;48.50;18.40;101635.00;;;;5014608;28;20221;-49
2023/05/19 07:37:10;;;;;;;7.17;2.50;;;17.90;48.50;18.40;101639.00;;;;5012596;28;20234;-49
2023/05/19 07:39:36;;;;;;;4.10;2.30;;;17.80;48.30;18.40;101641.00;;;;5011243;28;20331;-47
2023/05/19 07:42:02;;;;;;;4.33;2.53;;;17.90;48.50;18.40;101639.00;;;;5010576;28;20220;-47
2023/05/19 07:44:30;;;;;;;5.50;2.50;;;17.80;48.40;18.40;101639.00;;;;5014476;28;20212;-48
2023/05/19 07:46:55;;;;;;;5.63;2.33;;;17.80;48.40;18.20;101641.00;;;;5023653;28;20177;-47
2023/05/19 07:49:21;;;;;;;4.57;2.17;;;17.80;48.50;18.50;101633.00;;;;5012481;28;20703;-47
2023/05/19 07:51:47;;;;;;;12.07;2.50;;;17.90;48.80;18.50;101632.00;;;;5010576;28;20205;-48
2023/05/19 07:54:13;;;;;;;5.43;2.27;;;17.90;48.80;18.50;101627.00;;;;5011075;28;20206;-46
2023/05/19 07:56:38;;;;;;;5.60;2.57;;;17.90;48.90;18.50;101627.00;;;;5009921;28;20232;-47
2023/05/19 07:59:04;;;;;;;2.83;2.20;;;17.80;49.00;18.50;101635.00;;;;5011784;28;20170;-48
2023/05/19 08:01:31;;;;;;;4.83;2.73;;;17.90;49.10;18.50;101626.00;;;;5011478;28;20210;-47
2023/05/19 08:03:57;;;;;;;4.47;2.07;;;17.90;49.30;18.50;101632.00;;;;5013494;28;20209;-49
2023/05/19 08:06:24;;;;;;;2.87;2.23;;;17.90;49.30;18.50;101621.00;;;;5015191;28;20203;-49
2023/05/19 08:08:50;;;;;;;3.70;2.50;;;17.80;49.40;18.60;101618.00;;;;5013124;28;20602;-47
2023/05/19 08:11:16;;;;;;;4.33;2.30;;;17.90;49.60;18.60;101604.00;;;;5013603;28;20199;-49
2023/05/19 08:13:42;;;;;;;6.73;2.30;;;17.90;49.60;18.60;101613.00;;;;5011647;28;20210;-48
2023/05/19 08:16:08;;;;;;;3.47;2.20;;;17.90;49.70;18.60;101604.00;;;;5010567;28;20205;-47
2023/05/19 08:18:33;;;;;;;2.43;2.00;;;17.90;49.90;18.60;101600.00;;;;5010872;28;20182;-49
2023/05/19 08:21:00;;;;;;;4.90;2.47;;;17.90;50.00;18.60;101597.00;;;;5010663;28;20555;-50
2023/05/19 08:23:25;;;;;;;3.73;2.40;;;17.90;50.00;18.60;101606.00;;;;5011805;28;20262;-48
2023/05/19 08:25:51;;;;;;;2.87;2.30;;;17.90;50.20;18.60;101604.00;;;;5011486;28;20362;-50
2023/05/19 08:28:17;;;;;;;2.70;2.10;;;17.90;50.30;18.60;101613.00;;;;5010770;28;20184;-49
2023/05/19 08:30:43;;;;;;;4.03;2.40;;;17.90;50.40;18.70;101592.00;;;;5010759;28;20293;-47
2023/05/19 08:33:08;;;;;;;3.23;2.20;;;18.00;50.60;18.70;101592.00;;;;5009839;28;20186;-47
2023/05/19 08:35:34;;;;;;;3.53;2.40;;;17.90;50.50;18.70;101589.00;;;;5009830;28;20210;-48
2023/05/19 08:38:00;;;;;;;2.93;2.10;;;18.00;50.70;18.70;101586.00;;;;5009784;28;20612;-49
2023/05/19 08:40:27;;;;;;;2.67;1.97;;;17.90;50.70;18.70;101586.00;;;;5009935;28;20520;-48
2023/05/19 08:42:53;;;;;;;3.37;2.00;;;17.90;50.70;18.70;101591.00;;;;5008406;28;20276;-46
2023/05/19 08:45:19;;;;;;;2.67;2.03;;;17.90;50.70;18.70;101581.00;;;;5009253;28;20776;-48
2023/05/19 08:47:48;;;;;;;3.10;2.20;;;17.90;51.00;18.70;101585.00;;;;5008269;28;20186;-48
2023/05/19 08:50:16;;;;;;;2.80;2.00;;;17.90;51.00;18.70;101588.00;;;;4991858;28;20779;-49
2023/05/19 08:53:07;;;;;;;2.37;1.90;;;18.00;51.50;18.70;101582.00;;;;5008643;28;20194;-47
2023/05/19 08:56:00;;;;;;;4.23;2.20;;;17.90;51.60;18.70;101569.00;;;;5008361;28;20209;-48
2023/05/19 08:58:26;;;;;;;2.77;1.90;;;17.90;51.80;18.70;101576.00;;;;5008112;28;20178;-47
2023/05/19 09:00:52;;;;;;;3.73;2.00;;;17.90;52.00;18.70;101583.00;;;;5008290;28;20183;-46
2023/05/19 09:03:18;;;;;;;2.53;2.00;;;18.00;52.10;18.70;101583.00;;;;5008769;28;20174;-47
2023/05/19 09:05:45;;;;;;;2.77;2.00;;;18.00;52.20;18.70;101581.00;;;;5009492;28;20262;-45
2023/05/19 09:08:10;;;;;;;2.00;1.80;;;18.00;52.30;18.70;101566.00;;;;5009227;28;20270;-46
2023/05/19 09:10:36;;;;;;;2.83;2.10;;;18.00;52.30;18.80;101570.00;;;;5008610;28;20210;-47
2023/05/19 09:13:02;;;;;;;2.57;1.87;;;18.00;52.20;18.80;101559.00;;;;5009721;28;20265;-48
2023/05/19 09:15:27;;;;;;;2.07;1.80;;;18.00;52.30;18.80;101570.00;;;;5010554;28;20213;-48
2023/05/19 09:18:12;;;;;;;2.20;2.00;;;18.00;52.50;18.80;101569.00;;;;5010521;28;20598;-47
2023/05/19 09:20:43;;;;;;;2.10;1.90;;;18.10;53.00;18.80;101497.00;;;;5009195;28;20517;-47
2023/05/19 09:23:13;;;;;;;2.93;2.00;;;18.10;53.00;18.80;101558.00;;;;5010912;28;20168;-47
2023/05/19 09:25:52;;;;;;;2.10;1.90;;;18.00;53.10;18.80;101562.00;;;;5010833;28;20187;-49
2023/05/19 09:28:29;;;;;;;3.40;2.10;;;18.00;53.40;18.80;101563.00;;;;5009777;28;20425;-47
2023/05/19 09:31:13;;;;;;;2.57;2.10;;;18.10;53.50;18.80;101549.00;;;;5012118;28;20179;-47
2023/05/19 09:33:41;;;;;;;2.03;1.83;;;18.10;53.40;18.80;101542.00;;;;5025638;28;20217;-49
2023/05/19 09:36:07;;;;;;;1.93;1.80;;;18.10;53.50;18.90;101538.00;;;;5013082;28;20295;-48
2023/05/19 09:38:34;;;;;;;1.90;1.80;;;18.10;53.50;18.90;101541.00;;;;5012107;28;20841;-47
2023/05/19 09:41:00;;;;;;;2.27;1.80;;;18.10;53.30;18.90;101537.00;;;;5010403;28;20242;-48
2023/05/19 09:43:33;;;;;;;2.17;1.97;;;18.10;53.60;18.90;101530.00;;;;5009821;28;20639;-47
2023/05/19 09:46:06;;;;;;;2.27;1.90;;;18.20;53.90;18.90;101536.00;;;;5014764;28;20183;-48
2023/05/19 09:48:33;;;;;;;2.73;2.00;;;18.20;54.10;18.90;101537.00;;;;5024821;28;20179;-48
2023/05/19 09:51:00;;;;;;;1.93;1.80;;;18.20;53.90;19.00;101526.00;;;;5009268;28;20183;-47
2023/05/19 09:53:25;;;;;;;2.07;1.90;;;18.20;54.00;19.00;101527.00;;;;5009567;28;20175;-48
2023/05/19 09:55:57;;;;;;;4.23;1.93;;;18.20;54.70;19.00;101532.00;;;;5007841;28;20198;-48
2023/05/19 09:58:23;;;;;;;3.20;2.00;;;18.30;54.30;19.00;101523.00;;;;5011241;28;20258;-47
2023/05/19 10:00:50;;;;;;;8.13;2.10;;;18.20;54.40;19.00;101534.00;;;;5012483;28;20172;-48
2023/05/19 10:03:16;;;;;;;4.00;2.17;;;18.20;54.50;19.00;101521.00;;;;5012480;28;20179;-47
2023/05/19 10:05:42;;;;;;;2.93;2.10;;;18.30;54.60;19.00;101520.00;;;;5011376;28;20282;-47
2023/05/19 10:08:09;;;;;;;5.43;2.00;;;18.30;54.70;19.00;101519.00;;;;5011270;28;20186;-48
2023/05/19 10:10:38;;;;;;;2.60;1.90;;;18.30;54.70;19.10;101536.00;;;;5011425;28;20631;-46
2023/05/19 10:13:05;;;;;;;2.87;2.00;;;18.30;54.70;19.10;101515.00;;;;5011513;28;20551;-46
2023/05/19 10:15:30;;;;;;;3.23;1.93;;;18.30;54.80;19.10;101518.00;;;;5012531;28;20203;-47
2023/05/19 10:17:56;;;;;;;2.87;2.00;;;18.30;54.80;19.10;101518.00;;;;5010507;28;20175;-48
2023/05/19 10:20:22;;;;;;;2.40;1.77;;;18.30;54.80;19.10;101516.00;;;;5010789;28;20255;-47
2023/05/19 10:22:48;;;;;;;2.47;1.80;;;18.30;55.00;19.20;101517.00;;;;5011997;28;20631;-47
2023/05/19 10:25:14;;;;;;;4.03;1.90;;;18.40;55.30;19.20;101509.00;;;;5011201;28;20174;-45
2023/05/19 10:27:52;;;;;;;3.97;1.80;;;18.40;55.40;19.20;101512.00;;;;5009219;28;20209;-46
2023/05/19 10:30:25;;;;;;;4.27;1.80;;;18.50;55.80;19.30;101508.00;;;;5006440;28;20179;-46
2023/05/19 10:32:51;;;;;;;3.00;1.97;;;18.50;55.90;19.30;101501.00;;;;5009706;28;20203;-47
2023/05/19 10:35:41;;;;;;;2.90;1.83;;;18.50;55.80;19.30;101501.00;;;;5011894;28;20199;-48
2023/05/19 10:38:51;;;;;;;2.57;1.80;;;18.50;56.00;19.40;101497.00;;;;5011211;28;20237;-47
2023/05/19 10:41:46;;;;;;;4.07;1.97;;;18.60;56.10;19.40;101494.00;;;;5011383;28;20257;-49
2023/05/19 10:45:06;;;;;;;2.77;1.80;;;18.60;56.00;19.40;101494.00;;;;5009820;28;20675;-49
2023/05/19 10:47:32;;;;;;;4.33;1.90;;;18.60;55.60;19.40;101497.00;;;;5009198;28;20176;-47
2023/05/19 10:49:59;;;;;;;3.67;2.20;;;18.70;55.50;19.40;101495.00;;;;5010067;28;20223;-47
2023/05/19 10:52:25;;;;;;;3.63;2.10;;;18.70;52.50;19.40;101496.00;;;;5010149;28;20198;-46